Terminal Aerodrome Forecast
Issued by NWS

Home | Current Version | Previous Version | Text Only | Print | Product List | Glossary On
Versions: 1 2 3 4 5 6 7 8 9 10 11 12 13
000
FTUS45 KVEF 060529
TAFBIH
TAF
KBIH 060529Z 0606/0706 16008KT P6SM VCTS SCT080CB BKN150
      TEMPO 0606/0610 VRB20G30KT -TSRA BKN080CB
     FM061000 17008KT P6SM VCSH SCT060 BKN120
     FM061400 19009KT P6SM SCT060 BKN120
     FM061900 17015G25KT P6SM VCTS BKN060CB BKN100
     FM070300 16008KT P6SM SCT070 BKN110=

USA.gov is the U.S. government's official web portal to all federal, state and local government web resources and services.